createdAt,value
2023-03-24T00:00:23.830Z,10.13
2023-03-24T00:03:51.470Z,10.14
2023-03-24T00:06:36.469Z,10.14
2023-03-24T00:10:04.087Z,10.15
2023-03-24T00:13:31.726Z,10.16
2023-03-24T00:16:43.195Z,10.19
2023-03-24T00:20:06.007Z,10.24
2023-03-24T00:23:14.357Z,10.26
2023-03-24T00:26:03.758Z,10.24
2023-03-24T00:29:31.365Z,10.23
2023-03-24T00:32:54.768Z,10.16
2023-03-24T00:36:18.658Z,10.11
2023-03-24T00:39:46.099Z,10.06
2023-03-24T00:42:55.116Z,9.98
2023-03-24T00:46:19.034Z,9.89
2023-03-24T00:49:46.998Z,9.82
2023-03-24T00:53:14.707Z,9.74
2023-03-24T00:56:26.475Z,9.68
2023-03-24T00:59:35.103Z,9.62
2023-03-24T01:02:43.637Z,9.55
2023-03-24T01:06:11.251Z,9.50
2023-03-24T01:09:38.739Z,9.40
2023-03-24T01:12:47.104Z,9.33
2023-03-24T01:16:14.701Z,9.28
2023-03-24T01:19:42.099Z,9.27
2023-03-24T01:23:09.933Z,9.27
2023-03-24T01:26:37.399Z,9.25
2023-03-24T01:30:04.868Z,9.22
2023-03-24T01:33:16.614Z,9.22
2023-03-24T01:36:44.522Z,9.20
2023-03-24T01:39:49.169Z,9.17
2023-03-24T01:43:16.738Z,9.13
2023-03-24T01:46:44.366Z,9.10
2023-03-24T01:49:53.237Z,9.07
2023-03-24T01:53:09.447Z,9.02
2023-03-24T01:56:37.187Z,8.97
2023-03-24T02:00:05.173Z,8.90
2023-03-24T02:03:28.804Z,8.81
2023-03-24T02:06:38.867Z,8.77
2023-03-24T02:10:06.750Z,8.78
2023-03-24T02:13:34.639Z,8.79
2023-03-24T02:17:02.492Z,8.80
2023-03-24T02:20:12.501Z,8.82
2023-03-24T02:23:40.474Z,8.82
2023-03-24T02:27:08.199Z,8.82
2023-03-24T02:30:35.843Z,8.80
2023-03-24T02:34:03.747Z,8.78
2023-03-24T02:37:31.611Z,8.75
2023-03-24T02:40:39.458Z,8.71
2023-03-24T02:44:07.263Z,8.68
2023-03-24T02:47:16.232Z,8.65
2023-03-24T02:50:44.274Z,8.63
2023-03-24T02:54:11.822Z,8.61
2023-03-24T02:57:39.540Z,8.57
2023-03-24T03:01:04.745Z,8.58
2023-03-24T03:04:29.456Z,8.55
2023-03-24T03:07:56.216Z,8.53
2023-03-24T03:11:23.995Z,8.49
2023-03-24T03:14:40.584Z,8.46
2023-03-24T03:17:49.303Z,8.41
2023-03-24T03:20:58.804Z,8.40
2023-03-24T03:24:21.815Z,8.36
2023-03-24T03:27:49.667Z,8.33
2023-03-24T03:31:17.684Z,8.30
2023-03-24T03:34:41.892Z,8.29
2023-03-24T03:38:09.730Z,8.27
2023-03-24T03:41:25.185Z,8.26
2023-03-24T03:44:33.460Z,8.26
2023-03-24T03:47:57.209Z,8.24
2023-03-24T03:51:13.090Z,8.23
2023-03-24T03:54:31.004Z,8.22
2023-03-24T03:57:58.869Z,8.21
2023-03-24T04:01:10.384Z,8.22
2023-03-24T04:04:35.059Z,8.23
2023-03-24T04:07:43.206Z,8.23
2023-03-24T04:11:16.971Z,8.25
2023-03-24T04:14:27.885Z,8.26
2023-03-24T04:17:58.770Z,8.24
2023-03-24T04:20:47.057Z,8.21
2023-03-24T04:24:10.835Z,8.20
2023-03-24T04:27:26.670Z,8.15
2023-03-24T04:30:35.926Z,8.03
2023-03-24T04:34:03.884Z,7.97
2023-03-24T04:37:13.139Z,7.90
2023-03-24T04:40:18.670Z,7.86
2023-03-24T04:43:22.439Z,7.85
2023-03-24T04:46:46.009Z,7.87
2023-03-24T04:50:14.166Z,7.89
2023-03-24T04:53:29.294Z,7.92
2023-03-24T04:56:37.364Z,7.96
2023-03-24T05:00:05.345Z,8.02
2023-03-24T05:03:02.918Z,8.06
2023-03-24T05:06:01.169Z,8.12
2023-03-24T05:09:00.423Z,8.16
2023-03-24T05:11:51.198Z,8.21
2023-03-24T05:15:37.703Z,8.27
2023-03-24T05:19:17.239Z,8.35
2023-03-24T05:22:25.798Z,8.41
2023-03-24T05:25:53.852Z,8.48
2023-03-24T05:29:21.642Z,8.55
2023-03-24T05:32:30.801Z,8.62
2023-03-24T05:35:58.416Z,8.69
2023-03-24T05:39:26.278Z,8.73
2023-03-24T05:42:40.237Z,8.82
2023-03-24T05:46:11.927Z,8.92
2023-03-24T05:49:41.897Z,9.02
2023-03-24T05:52:50.806Z,9.10
2023-03-24T05:56:17.372Z,9.15
2023-03-24T05:59:45.556Z,9.26
2023-03-24T06:03:04.169Z,9.39
2023-03-24T06:06:30.580Z,9.55
2023-03-24T06:09:58.510Z,9.69
2023-03-24T06:13:26.315Z,9.80
2023-03-24T06:16:54.319Z,9.94
2023-03-24T06:19:47.479Z,10.09
2023-03-24T06:23:27.496Z,10.29
2023-03-24T06:26:55.437Z,10.50
2023-03-24T06:30:23.192Z,10.68
2023-03-24T06:33:51.352Z,10.81
2023-03-24T06:37:19.328Z,10.96
2023-03-24T06:40:08.246Z,11.07
2023-03-24T06:43:16.594Z,11.22
2023-03-24T06:46:45.621Z,11.41
2023-03-24T06:49:54.451Z,11.60
2023-03-24T06:53:22.634Z,11.78
2023-03-24T06:56:31.900Z,11.95
2023-03-24T06:59:59.830Z,12.15
2023-03-24T07:07:12.469Z,12.41
2023-03-24T07:10:23.970Z,12.55
2023-03-24T07:13:31.713Z,12.66
2023-03-24T07:16:59.813Z,12.77
2023-03-24T07:19:49.286Z,12.89
2023-03-24T07:23:13.265Z,13.03
2023-03-24T07:26:41.096Z,13.18
2023-03-24T07:30:09.017Z,13.36
2023-03-24T07:33:37.482Z,13.59
2023-03-24T07:37:06.679Z,13.82
2023-03-24T07:40:34.616Z,13.96
2023-03-24T07:43:43.807Z,14.08
2023-03-24T07:46:55.095Z,14.31
2023-03-24T07:49:44.004Z,14.43
2023-03-24T07:52:52.008Z,14.62
2023-03-24T07:56:00.688Z,14.74
2023-03-24T07:59:28.578Z,14.91
2023-03-24T08:02:56.559Z,15.09
2023-03-24T08:06:26.973Z,15.22
2023-03-24T08:09:54.669Z,15.46
2023-03-24T08:13:22.578Z,15.70
2023-03-24T08:16:31.527Z,15.82
2023-03-24T08:19:52.074Z,15.94
2023-03-24T08:23:07.207Z,16.13
2023-03-24T08:26:35.265Z,16.36
2023-03-24T08:29:44.067Z,16.56
2023-03-24T08:33:12.971Z,16.74
2023-03-24T08:36:40.714Z,16.93
2023-03-24T08:39:49.463Z,17.00
2023-03-24T08:42:58.343Z,17.14
2023-03-24T08:46:26.261Z,17.18
2023-03-24T08:49:35.103Z,17.39
2023-03-24T08:52:44.099Z,17.57
2023-03-24T08:55:52.885Z,17.69
2023-03-24T08:59:21.240Z,17.88
2023-03-24T09:02:57.054Z,17.83
2023-03-24T09:06:20.185Z,17.90
2023-03-24T09:09:34.751Z,18.11
2023-03-24T09:13:02.546Z,18.21
2023-03-24T09:16:30.498Z,18.45
2023-03-24T09:19:59.169Z,18.61
2023-03-24T09:23:26.573Z,18.81
2023-03-24T09:26:35.662Z,19.09
2023-03-24T09:29:47.327Z,19.27
2023-03-24T09:33:15.180Z,19.30
2023-03-24T09:36:24.234Z,19.49
2023-03-24T09:39:52.025Z,19.61
2023-03-24T09:43:00.633Z,19.74
2023-03-24T09:46:16.375Z,19.83
2023-03-24T09:49:44.242Z,19.97
2023-03-24T09:52:33.646Z,20.20
2023-03-24T09:56:01.679Z,20.51
2023-03-24T09:59:29.316Z,20.69
2023-03-24T10:02:57.635Z,20.92
2023-03-24T10:06:25.183Z,21.14
2023-03-24T10:09:52.976Z,21.27
2023-03-24T10:13:20.820Z,21.40
2023-03-24T10:16:48.958Z,21.36
2023-03-24T10:20:16.693Z,21.40
2023-03-24T10:23:44.489Z,21.68
2023-03-24T10:27:12.236Z,21.89
2023-03-24T10:30:41.079Z,21.96
2023-03-24T10:34:08.005Z,22.22
2023-03-24T10:37:16.829Z,22.31
2023-03-24T10:40:33.439Z,22.49
2023-03-24T10:43:56.925Z,22.65
2023-03-24T10:47:24.630Z,22.48
2023-03-24T10:50:32.263Z,22.62
2023-03-24T10:54:03.302Z,22.65
2023-03-24T10:57:29.446Z,22.88
2023-03-24T11:00:57.801Z,23.04
2023-03-24T11:04:06.483Z,23.09
2023-03-24T11:07:34.785Z,22.98
2023-03-24T11:11:02.557Z,23.08
2023-03-24T11:14:30.361Z,23.08
2023-03-24T11:17:20.339Z,23.04
2023-03-24T11:20:48.268Z,23.04
2023-03-24T11:24:16.097Z,23.17
2023-03-24T11:27:44.029Z,23.36
2023-03-24T11:31:11.926Z,23.59
2023-03-24T11:34:05.981Z,23.66
2023-03-24T11:37:14.698Z,23.71
2023-03-24T11:40:03.968Z,23.76
2023-03-24T11:43:12.904Z,23.96
2023-03-24T11:46:40.944Z,24.10
2023-03-24T11:49:50.912Z,24.15
2023-03-24T11:53:18.796Z,24.24
2023-03-24T11:56:46.747Z,24.48
2023-03-24T12:00:14.501Z,24.31
2023-03-24T12:03:42.824Z,24.58
2023-03-24T12:07:10.712Z,24.72
2023-03-24T12:10:38.528Z,24.93
2023-03-24T12:13:47.540Z,24.59
2023-03-24T12:17:15.484Z,24.75
2023-03-24T12:20:25.993Z,24.78
2023-03-24T12:23:54.296Z,24.94
2023-03-24T12:27:22.268Z,25.11
2023-03-24T12:30:50.115Z,24.95
2023-03-24T12:34:17.606Z,25.07
2023-03-24T12:37:45.553Z,25.23
2023-03-24T12:40:54.384Z,25.40
2023-03-24T12:44:22.320Z,25.64
2023-03-24T12:47:50.261Z,25.85
2023-03-24T12:51:19.410Z,26.25
2023-03-24T12:54:47.275Z,26.42
2023-03-24T12:57:56.272Z,26.68
2023-03-24T13:01:23.893Z,26.89
2023-03-24T13:04:31.241Z,26.97
2023-03-24T13:07:59.127Z,26.97
2023-03-24T13:10:49.956Z,27.23
2023-03-24T13:14:17.813Z,27.65
2023-03-24T13:17:45.657Z,27.70
2023-03-24T13:21:13.482Z,27.77
2023-03-24T13:24:41.314Z,28.10
2023-03-24T13:28:09.123Z,28.58
2023-03-24T13:31:17.231Z,28.75
2023-03-24T13:34:26.025Z,28.31
2023-03-24T13:37:54.030Z,28.77
2023-03-24T13:41:21.907Z,28.85
2023-03-24T13:44:23.598Z,28.83
2023-03-24T13:47:32.016Z,28.48
2023-03-24T13:50:59.672Z,28.81
2023-03-24T13:54:28.210Z,29.16
2023-03-24T13:57:25.855Z,29.54
2023-03-24T14:00:53.620Z,29.48
2023-03-24T14:04:21.547Z,29.42
2023-03-24T14:07:49.389Z,29.56
2023-03-24T14:11:17.328Z,29.47
2023-03-24T14:14:05.723Z,29.83
2023-03-24T14:17:14.762Z,29.30
2023-03-24T14:20:42.570Z,29.68
2023-03-24T14:23:51.511Z,29.74
2023-03-24T14:27:19.288Z,29.32
2023-03-24T14:30:47.119Z,29.44
2023-03-24T14:34:14.965Z,29.41
2023-03-24T14:37:42.804Z,29.42
2023-03-24T14:41:10.655Z,29.49
2023-03-24T14:44:20.628Z,29.19
2023-03-24T14:47:48.699Z,29.65
2023-03-24T14:50:38.014Z,29.80
2023-03-24T14:53:46.999Z,29.39
2023-03-24T14:57:15.182Z,29.37
2023-03-24T15:00:49.293Z,29.09
2023-03-24T15:03:52.285Z,28.71
2023-03-24T15:07:00.518Z,28.51
2023-03-24T15:10:28.426Z,28.67
2023-03-24T15:13:56.054Z,28.77
2023-03-24T15:17:04.673Z,28.74
2023-03-24T15:20:33.667Z,28.91
2023-03-24T15:24:00.276Z,29.01
2023-03-24T15:27:28.162Z,29.11
2023-03-24T15:30:56.002Z,28.90
2023-03-24T15:34:23.781Z,28.77
2023-03-24T15:37:51.733Z,29.10
2023-03-24T15:41:00.671Z,29.42
2023-03-24T15:44:28.673Z,29.87
2023-03-24T15:47:17.495Z,30.14
2023-03-24T15:50:45.340Z,30.41
2023-03-24T15:53:55.293Z,30.48
2023-03-24T15:57:04.556Z,30.89
2023-03-24T16:00:32.321Z,30.88
2023-03-24T16:04:00.767Z,30.69
2023-03-24T16:07:29.272Z,31.09
2023-03-24T16:10:57.042Z,31.62
2023-03-24T16:14:25.146Z,31.18
2023-03-24T16:17:53.371Z,31.08
2023-03-24T16:21:02.543Z,30.94
2023-03-24T16:24:30.390Z,29.70
2023-03-24T16:27:58.268Z,28.31
2023-03-24T16:31:26.159Z,28.20
2023-03-24T16:34:14.165Z,27.86
2023-03-24T16:37:41.996Z,27.15
2023-03-24T16:41:10.051Z,26.21
2023-03-24T16:44:37.924Z,25.47
2023-03-24T16:48:05.843Z,24.76
2023-03-24T16:51:33.517Z,24.02
2023-03-24T16:55:02.227Z,23.50
2023-03-24T16:58:30.056Z,23.08
2023-03-24T17:01:58.050Z,22.71
2023-03-24T17:05:26.104Z,22.33
2023-03-24T17:08:34.909Z,22.04
2023-03-24T17:12:03.860Z,21.70
2023-03-24T17:15:31.719Z,21.45
2023-03-24T17:18:59.950Z,21.18
2023-03-24T17:22:27.558Z,20.97
2023-03-24T17:25:37.469Z,20.76
2023-03-24T17:29:05.372Z,20.56
2023-03-24T17:32:33.595Z,20.42
2023-03-24T17:36:01.455Z,20.27
2023-03-24T17:39:10.556Z,20.13
2023-03-24T17:41:59.962Z,20.05
2023-03-24T17:45:27.872Z,19.93
2023-03-24T17:48:36.597Z,19.84
2023-03-24T17:51:46.586Z,19.75
2023-03-24T17:55:14.494Z,19.66
2023-03-24T17:58:22.259Z,19.57
2023-03-24T18:01:50.682Z,19.48
2023-03-24T18:05:18.569Z,19.38
2023-03-24T18:08:46.408Z,19.26
2023-03-24T18:11:55.344Z,19.16
2023-03-24T18:15:23.185Z,19.06
2023-03-24T18:18:51.204Z,18.96
2023-03-24T18:21:41.017Z,18.88
2023-03-24T18:24:48.828Z,18.81
2023-03-24T18:28:16.910Z,18.71
2023-03-24T18:31:06.083Z,18.63
2023-03-24T18:33:56.284Z,18.57
2023-03-24T18:37:24.422Z,18.51
2023-03-24T18:40:52.356Z,18.45
2023-03-24T18:44:20.042Z,18.39
2023-03-24T18:47:29.803Z,18.35
2023-03-24T18:50:57.822Z,18.32
2023-03-24T18:54:25.474Z,18.28
2023-03-24T18:57:53.817Z,18.26
2023-03-24T19:01:21.879Z,18.26
2023-03-24T19:04:49.627Z,18.23
2023-03-24T19:08:17.798Z,18.17
2023-03-24T19:11:49.006Z,18.12
2023-03-24T19:14:58.792Z,18.06
2023-03-24T19:18:07.905Z,18.04
2023-03-24T19:21:16.530Z,17.99
2023-03-24T19:24:45.366Z,17.92
2023-03-24T19:28:13.541Z,17.87
2023-03-24T19:31:42.584Z,17.81
2023-03-24T19:35:10.480Z,17.77
2023-03-24T19:38:20.363Z,17.72
2023-03-24T19:41:48.106Z,17.66
2023-03-24T19:45:15.737Z,17.61
2023-03-24T19:48:43.396Z,17.57
2023-03-24T19:51:32.075Z,17.54
2023-03-24T19:54:59.849Z,17.50
2023-03-24T19:58:27.533Z,17.47
2023-03-24T20:01:55.742Z,17.44
2023-03-24T20:05:04.486Z,17.40
2023-03-24T20:08:32.606Z,17.36
2023-03-24T20:11:41.240Z,17.31
2023-03-24T20:15:09.195Z,17.24
2023-03-24T20:18:19.352Z,17.18
2023-03-24T20:21:47.304Z,17.10
2023-03-24T20:25:15.188Z,17.00
2023-03-24T20:28:24.565Z,16.97
2023-03-24T20:31:52.585Z,16.95
2023-03-24T20:34:45.488Z,16.91
2023-03-24T20:37:53.511Z,16.88
2023-03-24T20:41:21.222Z,16.83
2023-03-24T20:44:49.262Z,16.78
2023-03-24T20:47:58.302Z,16.74
2023-03-24T20:51:25.868Z,16.66
2023-03-24T20:54:53.706Z,16.56
2023-03-24T20:58:21.350Z,16.49
2023-03-24T21:01:49.218Z,16.42
2023-03-24T21:05:17.953Z,16.36
2023-03-24T21:08:45.951Z,16.32
2023-03-24T21:12:13.823Z,16.27
2023-03-24T21:15:03.069Z,16.20
2023-03-24T21:18:30.747Z,16.14
2023-03-24T21:21:58.529Z,16.10
2023-03-24T21:25:26.208Z,16.07
2023-03-24T21:28:54.318Z,16.05
2023-03-24T21:32:02.547Z,15.99
2023-03-24T21:35:11.336Z,15.91
2023-03-24T21:38:39.329Z,15.87
2023-03-24T21:42:07.008Z,15.86
2023-03-24T21:45:34.606Z,15.85
2023-03-24T21:49:02.767Z,15.82
2023-03-24T21:52:30.754Z,15.74
2023-03-24T21:55:58.553Z,15.68
2023-03-24T21:59:07.491Z,15.59
2023-03-24T22:02:15.593Z,15.51
2023-03-24T22:05:24.437Z,15.47
2023-03-24T22:08:52.228Z,15.41
2023-03-24T22:12:20.014Z,15.36
2023-03-24T22:15:47.772Z,15.29
2023-03-24T22:19:16.145Z,15.24
2023-03-24T22:22:44.035Z,15.18
2023-03-24T22:25:53.931Z,15.13
2023-03-24T22:29:03.516Z,14.84
2023-03-24T22:32:31.146Z,13.95
2023-03-24T22:35:19.550Z,13.57
2023-03-24T22:38:27.368Z,13.13
2023-03-24T22:41:55.159Z,12.62
2023-03-24T22:45:23.459Z,12.45
2023-03-24T22:48:51.624Z,12.29
2023-03-24T22:52:19.632Z,12.25
2023-03-24T22:55:47.873Z,12.25
2023-03-24T22:59:15.296Z,12.29
2023-03-24T23:02:24.624Z,12.25
2023-03-24T23:05:52.520Z,12.29
2023-03-24T23:09:20.119Z,12.32
2023-03-24T23:12:47.937Z,12.33
2023-03-24T23:16:15.700Z,12.35
2023-03-24T23:19:43.810Z,12.35
2023-03-24T23:22:32.779Z,12.30
2023-03-24T23:26:00.538Z,12.31
2023-03-24T23:29:28.236Z,12.42
2023-03-24T23:32:56.147Z,12.52
2023-03-24T23:39:45.650Z,12.67
2023-03-24T23:43:13.560Z,12.76
2023-03-24T23:46:41.368Z,12.84
2023-03-24T23:50:09.140Z,12.89
2023-03-24T23:53:37.185Z,12.86
2023-03-24T23:56:07.536Z,12.83
2023-03-24T23:59:15.874Z,12.83
